Time;durP1;ratioP1;P1;durP2;ratioP2;P2;SDS_P1;SDS_P2;PMS_P1;PMS_P2;Temp;Humidity;BMP_temperature;BMP_pressure;BME280_temperature;BME280_humidity;BME280_pressure;Samples;Min_cycle;Max_cycle;Signal;HPM_P1;HPM_P2
2022/03/08 00:02:02;;;;;;;8.17;6.80;;;;;;;1.51;100.00;99847.44;5047697;28;20212;-79
2022/03/08 00:04:32;;;;;;;8.97;6.67;;;;;;;1.64;100.00;99846.34;5048032;28;20192;-79
2022/03/08 00:07:02;;;;;;;8.77;6.03;;;;;;;1.50;100.00;99843.97;5071891;28;20207;-80
2022/03/08 00:09:32;;;;;;;9.80;6.50;;;;;;;1.36;100.00;99844.19;5090796;28;20200;-79
2022/03/08 00:12:02;;;;;;;8.80;6.87;;;;;;;1.32;100.00;99836.44;5084327;28;20196;-78
2022/03/08 00:14:35;;;;;;;10.23;7.67;;;;;;;1.37;100.00;99839.84;5085389;28;20220;-79
2022/03/08 00:17:06;;;;;;;18.60;10.50;;;;;;;1.46;100.00;99836.22;5085538;28;20203;-79
2022/03/08 00:19:35;;;;;;;27.30;15.23;;;;;;;1.45;100.00;99832.75;5052466;28;20204;-79
2022/03/08 00:22:04;;;;;;;22.50;13.43;;;;;;;1.50;100.00;99830.06;5108288;27;20198;-79
2022/03/08 00:24:35;;;;;;;59.07;27.33;;;;;;;1.54;100.00;99836.94;5125750;27;20206;-79
2022/03/08 00:27:05;;;;;;;35.73;19.83;;;;;;;1.55;100.00;99825.63;5129495;27;20210;-79
2022/03/08 00:29:42;;;;;;;36.83;16.90;;;;;;;1.61;100.00;99828.97;5126422;27;20209;-79
2022/03/08 00:32:13;;;;;;;45.73;22.70;;;;;;;1.54;100.00;99824.75;5103741;28;20214;-79
2022/03/08 00:34:53;;;;;;;31.27;16.67;;;;;;;1.59;100.00;99822.94;5074515;28;20261;-79
2022/03/08 00:37:23;;;;;;;20.73;11.83;;;;;;;1.55;100.00;99826.50;5119385;27;20189;-79
2022/03/08 00:39:53;;;;;;;13.53;8.33;;;;;;;1.63;100.00;99828.94;5058702;28;20291;-79
2022/03/08 00:42:24;;;;;;;11.30;8.47;;;;;;;1.53;100.00;99817.81;5087183;28;20188;-80
2022/03/08 00:45:07;;;;;;;15.83;10.20;;;;;;;1.53;100.00;99816.94;5058113;28;20649;-79
2022/03/08 00:47:39;;;;;;;14.53;8.77;;;;;;;1.59;100.00;99824.69;5088571;28;20184;-79
2022/03/08 00:50:11;;;;;;;11.27;8.00;;;;;;;1.53;100.00;99827.38;5086331;28;20200;-79
2022/03/08 00:52:41;;;;;;;13.27;8.40;;;;;;;1.60;100.00;99821.19;5087960;28;20188;-79
2022/03/08 00:55:13;;;;;;;13.53;8.77;;;;;;;1.55;100.00;99820.41;5032122;28;20319;-79
2022/03/08 00:57:44;;;;;;;12.70;8.80;;;;;;;1.46;100.00;99810.97;4969473;28;20203;-79
2022/03/08 01:00:20;;;;;;;16.00;10.80;;;;;;;1.50;100.00;99803.94;4971280;28;20196;-79
2022/03/08 01:02:52;;;;;;;33.50;15.73;;;;;;;1.58;100.00;99805.53;4891218;29;20194;-79
2022/03/08 01:05:21;;;;;;;42.20;18.73;;;;;;;1.63;100.00;99805.44;4926876;29;20201;-79
2022/03/08 01:07:50;;;;;;;27.33;13.53;;;;;;;1.70;100.00;99801.84;4934273;29;20244;-79
2022/03/08 01:10:22;;;;;;;20.43;11.60;;;;;;;1.52;100.00;99799.56;4932215;29;20201;-79
2022/03/08 01:12:52;;;;;;;9.63;6.83;;;;;;;1.65;100.00;99796.72;4937174;28;20204;-79
2022/03/08 01:15:26;;;;;;;8.67;6.57;;;;;;;1.62;100.00;99794.16;4983639;28;20267;-79
2022/03/08 01:17:58;;;;;;;7.80;6.07;;;;;;;1.66;100.00;99793.22;5023580;28;20201;-79
2022/03/08 01:20:28;;;;;;;8.80;7.47;;;;;;;1.59;100.00;99791.59;5049640;28;20198;-79
2022/03/08 01:22:57;;;;;;;8.97;6.87;;;;;;;1.40;100.00;99790.19;5107795;28;20202;-79
2022/03/08 01:25:27;;;;;;;11.60;7.53;;;;;;;1.36;100.00;99791.16;5100184;28;20241;-79
2022/03/08 01:27:57;;;;;;;7.70;6.70;;;;;;;1.33;100.00;99792.03;5076046;28;20407;-79
2022/03/08 01:30:29;;;;;;;9.67;7.13;;;;;;;1.17;100.00;99790.56;5127169;27;20198;-79
2022/03/08 01:32:58;;;;;;;10.20;7.20;;;;;;;1.11;100.00;99790.66;5125853;27;20198;-79
2022/03/08 01:35:27;;;;;;;10.90;7.40;;;;;;;0.93;100.00;99791.78;5087181;28;20214;-79
2022/03/08 01:37:57;;;;;;;8.50;6.77;;;;;;;0.97;100.00;99797.84;5068745;28;20262;-80
2022/03/08 01:40:26;;;;;;;32.60;17.63;;;;;;;1.02;100.00;99789.06;5066711;28;20184;-79
2022/03/08 01:42:54;;;;;;;9.50;6.97;;;;;;;0.67;100.00;99780.88;5071026;28;20220;-79
2022/03/08 01:45:25;;;;;;;8.37;6.77;;;;;;;0.69;100.00;99777.38;5063584;28;20235;-79
2022/03/08 01:48:02;;;;;;;7.13;6.33;;;;;;;0.58;100.00;99774.06;5071664;28;20337;-79
2022/03/08 01:50:38;;;;;;;7.90;6.77;;;;;;;0.57;100.00;99772.31;5072503;28;20216;-79
2022/03/08 01:53:13;;;;;;;8.57;6.80;;;;;;;0.69;100.00;99773.91;5080566;28;20186;-79
2022/03/08 01:55:45;;;;;;;10.77;7.40;;;;;;;0.71;100.00;99773.00;5106391;28;20287;-79
2022/03/08 01:58:26;;;;;;;11.47;7.70;;;;;;;0.84;100.00;99773.69;5111294;28;20201;-78
2022/03/08 02:01:01;;;;;;;20.10;11.40;;;;;;;0.83;100.00;99764.13;5103220;28;20308;-79
2022/03/08 02:03:38;;;;;;;17.50;10.10;;;;;;;0.90;100.00;99751.88;5109205;28;20199;-79
2022/03/08 02:06:09;;;;;;;20.50;12.07;;;;;;;0.83;100.00;99756.31;4972260;28;20202;-79
2022/03/08 02:08:41;;;;;;;13.50;8.43;;;;;;;0.86;100.00;99749.28;4908349;29;20206;-79
2022/03/08 02:11:12;;;;;;;11.30;7.13;;;;;;;0.99;100.00;99747.38;4912299;29;21145;-79
2022/03/08 02:13:41;;;;;;;9.10;6.93;;;;;;;1.16;100.00;99749.72;4912504;29;20201;-79
2022/03/08 02:16:14;;;;;;;8.90;6.77;;;;;;;1.12;100.00;99746.28;4909363;29;20313;-79
2022/03/08 02:18:44;;;;;;;10.73;7.67;;;;;;;1.07;100.00;99735.09;4883281;29;20753;-79
2022/03/08 02:21:17;;;;;;;9.33;6.80;;;;;;;1.05;100.00;99739.44;4849661;29;20209;-79
2022/03/08 02:23:46;;;;;;;13.13;7.70;;;;;;;0.55;100.00;99746.28;4888757;28;20195;-79
2022/03/08 02:26:15;;;;;;;7.83;6.47;;;;;;;0.44;100.00;99745.56;4980650;28;20194;-79
2022/03/08 02:28:44;;;;;;;9.60;6.73;;;;;;;0.41;100.00;99742.16;4986546;28;20199;-80
2022/03/08 02:31:25;;;;;;;8.07;6.80;;;;;;;0.35;100.00;99737.88;4955602;28;20259;-79
2022/03/08 02:33:54;;;;;;;11.47;7.20;;;;;;;0.23;100.00;99735.44;4948588;28;20199;-79
2022/03/08 02:36:25;;;;;;;10.93;7.63;;;;;;;0.15;100.00;99738.13;5013314;28;20214;-79
2022/03/08 02:38:57;;;;;;;10.53;7.30;;;;;;;0.21;100.00;99738.06;4995056;28;20202;-79
2022/03/08 02:41:27;;;;;;;9.63;7.63;;;;;;;-0.04;100.00;99732.28;5038016;28;20200;-79
2022/03/08 02:43:55;;;;;;;9.57;7.77;;;;;;;-0.02;100.00;99735.72;5061867;28;20224;-79
2022/03/08 02:46:26;;;;;;;12.43;8.10;;;;;;;-0.08;100.00;99733.22;5065106;28;20264;-79
2022/03/08 02:48:56;;;;;;;11.87;7.77;;;;;;;-0.04;100.00;99737.50;5069672;28;20667;-79
2022/03/08 02:51:30;;;;;;;9.40;6.83;;;;;;;0.07;100.00;99739.97;5068967;28;20223;-79
2022/03/08 02:53:59;;;;;;;9.63;7.13;;;;;;;-0.12;100.00;99738.47;5053486;28;20202;-79
2022/03/08 02:56:27;;;;;;;9.53;7.10;;;;;;;-0.16;100.00;99732.44;5070560;28;20216;-79
2022/03/08 02:59:21;;;;;;;10.07;6.60;;;;;;;-0.08;100.00;99740.19;5104238;28;20199;-79
2022/03/08 03:01:51;;;;;;;9.13;6.83;;;;;;;-0.17;100.00;99741.13;5108866;28;20191;-79
2022/03/08 03:04:37;;;;;;;9.93;7.40;;;;;;;-0.16;100.00;99735.06;5014044;28;20201;-79
2022/03/08 03:07:09;;;;;;;11.87;8.00;;;;;;;-0.19;100.00;99742.00;5014298;28;20201;-79
2022/03/08 03:09:37;;;;;;;10.57;7.77;;;;;;;-0.20;100.00;99742.91;5009070;28;20202;-79
2022/03/08 03:12:08;;;;;;;11.83;8.00;;;;;;;-0.20;100.00;99751.56;5008440;28;20210;-79
2022/03/08 03:14:37;;;;;;;8.90;7.03;;;;;;;-0.14;100.00;99743.69;5011951;28;20203;-79
2022/03/08 03:17:06;;;;;;;8.47;7.00;;;;;;;-0.22;100.00;99744.66;5006470;28;20226;-79
2022/03/08 03:19:35;;;;;;;11.77;8.03;;;;;;;-0.22;100.00;99745.53;4997941;28;20198;-80
2022/03/08 03:22:08;;;;;;;11.17;7.50;;;;;;;-0.10;100.00;99740.16;5010770;28;20198;-79
2022/03/08 03:24:37;;;;;;;15.03;7.97;;;;;;;0.07;100.00;99736.50;5028125;28;20206;-79
2022/03/08 03:27:07;;;;;;;18.03;7.77;;;;;;;0.03;100.00;99727.88;5025449;28;20240;-79
2022/03/08 03:29:53;;;;;;;11.43;7.50;;;;;;;-0.02;100.00;99722.72;5121847;27;20694;-79
2022/03/08 03:32:23;;;;;;;9.33;7.23;;;;;;;-0.08;100.00;99722.81;5128227;27;20198;-79
2022/03/08 03:34:52;;;;;;;9.13;7.07;;;;;;;0.03;100.00;99720.06;5130215;27;20281;-79
2022/03/08 03:37:23;;;;;;;9.83;7.50;;;;;;;0.15;100.00;99719.06;5127977;27;20692;-79
2022/03/08 03:39:52;;;;;;;8.90;6.90;;;;;;;-0.06;100.00;99718.44;5125881;27;20210;-79
2022/03/08 03:42:21;;;;;;;11.23;7.17;;;;;;;-0.05;100.00;99717.56;5129404;27;20194;-80
2022/03/08 03:44:52;;;;;;;9.93;7.40;;;;;;;-0.04;100.00;99719.28;5125482;27;20198;-79
2022/03/08 03:47:22;;;;;;;10.73;7.30;;;;;;;-0.07;100.00;99713.25;5125801;27;20255;-79
2022/03/08 03:49:51;;;;;;;9.80;7.10;;;;;;;-0.12;100.00;99709.84;5127575;27;20273;-79
2022/03/08 03:52:19;;;;;;;9.33;6.83;;;;;;;-0.01;100.00;99708.81;5127573;27;20198;-79
2022/03/08 03:54:49;;;;;;;9.63;6.93;;;;;;;-0.20;100.00;99709.06;5127783;27;20629;-82
2022/03/08 03:57:18;;;;;;;9.33;6.47;;;;;;;-0.18;100.00;99710.78;5128648;27;20218;-79
2022/03/08 03:59:49;;;;;;;9.27;6.83;;;;;;;-0.44;100.00;99720.63;5132840;27;20183;-79
2022/03/08 04:02:24;;;;;;;9.10;6.50;;;;;;;-0.55;100.00;99706.88;5124502;27;20203;-79
2022/03/08 04:04:53;;;;;;;10.83;7.37;;;;;;;-0.39;100.00;99703.19;5125960;27;20239;-79
2022/03/08 04:07:22;;;;;;;9.97;6.93;;;;;;;-0.40;100.00;99715.34;5130583;27;20198;-78
2022/03/08 04:09:52;;;;;;;9.90;6.93;;;;;;;-0.40;100.00;99709.28;5136242;27;20195;-79
2022/03/08 04:12:20;;;;;;;10.63;7.07;;;;;;;-0.39;100.00;99719.66;5130127;27;20213;-79
2022/03/08 04:14:51;;;;;;;10.70;7.83;;;;;;;-0.46;100.00;99702.41;5070992;28;20712;-79
2022/03/08 04:17:20;;;;;;;8.83;6.97;;;;;;;-0.46;100.00;99707.63;5073143;28;20212;-80
2022/03/08 04:19:49;;;;;;;8.37;6.67;;;;;;;-0.53;100.00;99712.91;5087775;28;20222;-79
2022/03/08 04:22:17;;;;;;;9.50;7.30;;;;;;;-0.61;100.00;99721.63;5092509;28;20188;-79
2022/03/08 04:24:46;;;;;;;11.53;8.20;;;;;;;-0.75;100.00;99715.72;5089069;28;20338;-79
2022/03/08 04:27:19;;;;;;;13.70;7.43;;;;;;;-0.79;100.00;99716.59;5081752;28;20199;-79
2022/03/08 04:29:47;;;;;;;11.10;7.87;;;;;;;-0.71;100.00;99724.34;5090527;28;20276;-79
2022/03/08 04:32:18;;;;;;;9.97;7.17;;;;;;;-0.73;100.00;99711.38;5098448;27;20196;-79
2022/03/08 04:34:46;;;;;;;10.97;7.60;;;;;;;-0.51;100.00;99701.59;5149482;27;20204;-79
2022/03/08 04:37:16;;;;;;;9.07;7.20;;;;;;;-0.56;100.00;99713.81;5150952;27;20217;-79
2022/03/08 04:39:45;;;;;;;11.70;7.50;;;;;;;-0.79;100.00;99716.59;5115528;27;20205;-79
2022/03/08 04:42:18;;;;;;;14.33;8.87;;;;;;;-0.84;100.00;99712.34;5145724;27;20224;-78
2022/03/08 04:44:46;;;;;;;13.43;9.90;;;;;;;-0.80;100.00;99708.81;5150522;27;20193;-79
2022/03/08 04:47:15;;;;;;;10.63;8.10;;;;;;;-0.69;100.00;99718.25;5150567;27;20197;-79
2022/03/08 04:49:44;;;;;;;10.80;7.97;;;;;;;-0.78;100.00;99715.72;5153016;27;20193;-79
2022/03/08 04:52:13;;;;;;;11.73;8.10;;;;;;;-0.76;100.00;99718.34;5153331;27;20686;-79
2022/03/08 04:54:43;;;;;;;10.07;7.67;;;;;;;-0.75;100.00;99730.47;5150302;27;20217;-79
2022/03/08 04:57:11;;;;;;;10.70;7.97;;;;;;;-0.85;100.00;99734.03;5106905;28;20219;-79
2022/03/08 04:59:45;;;;;;;10.90;7.23;;;;;;;-1.14;100.00;99724.72;5104797;28;20183;-79
2022/03/08 05:02:14;;;;;;;10.73;7.77;;;;;;;-1.05;100.00;99723.78;5107557;28;20207;-79
2022/03/08 05:04:43;;;;;;;11.83;7.90;;;;;;;-1.10;100.00;99725.56;5104426;28;20202;-80
2022/03/08 05:07:13;;;;;;;10.20;7.43;;;;;;;-1.11;100.00;99722.09;5059152;28;20195;-79
2022/03/08 05:09:41;;;;;;;12.93;8.53;;;;;;;-0.96;100.00;99727.19;5112235;28;20190;-79
2022/03/08 05:12:12;;;;;;;10.40;8.07;;;;;;;-1.02;100.00;99728.94;5108526;28;20195;-79
2022/03/08 05:14:40;;;;;;;10.67;8.07;;;;;;;-0.93;100.00;99745.34;5099810;27;20197;-79
2022/03/08 05:17:11;;;;;;;11.50;8.27;;;;;;;-0.78;100.00;99735.66;5148897;27;20217;-79
2022/03/08 05:19:40;;;;;;;11.17;7.57;;;;;;;-0.80;100.00;99737.44;5151445;27;20656;-79
2022/03/08 05:22:10;;;;;;;11.57;8.27;;;;;;;-0.93;100.00;99742.75;5155723;27;20189;-80
2022/03/08 05:24:38;;;;;;;11.90;8.30;;;;;;;-0.93;100.00;99737.53;5151437;27;20192;-79
2022/03/08 05:27:08;;;;;;;12.27;8.40;;;;;;;-0.96;100.00;99742.78;5046337;28;20203;-79
2022/03/08 05:29:38;;;;;;;11.93;8.00;;;;;;;-0.83;100.00;99740.06;5044559;28;20344;-79
2022/03/08 05:32:07;;;;;;;13.80;7.93;;;;;;;-0.85;100.00;99734.03;5037549;28;20198;-79
2022/03/08 05:34:37;;;;;;;11.40;8.20;;;;;;;-0.76;100.00;99736.53;5018408;28;20189;-79
2022/03/08 05:37:05;;;;;;;10.47;7.50;;;;;;;-0.90;100.00;99729.72;5051361;28;20213;-79
2022/03/08 05:39:34;;;;;;;11.27;8.07;;;;;;;-0.79;100.00;99734.81;5048488;28;20224;-81
2022/03/08 05:42:03;;;;;;;10.33;7.80;;;;;;;-0.84;100.00;99728.81;5034772;28;20709;-79
2022/03/08 05:44:32;;;;;;;10.13;8.17;;;;;;;-0.89;100.00;99730.56;5049356;27;20226;-79
2022/03/08 05:47:04;;;;;;;11.93;7.83;;;;;;;-1.12;100.00;99727.31;5150924;27;20236;-79
2022/03/08 05:49:32;;;;;;;14.73;9.67;;;;;;;-1.12;100.00;99728.16;5149815;27;20201;-80
2022/03/08 05:52:03;;;;;;;13.40;9.47;;;;;;;-1.16;100.00;99729.03;5145456;27;20320;-80
2022/03/08 05:54:32;;;;;;;17.70;10.97;;;;;;;-1.11;100.00;99742.88;5107488;28;20247;-79
2022/03/08 05:57:01;;;;;;;15.87;10.53;;;;;;;-1.01;100.00;99734.13;5108892;28;20236;-79
2022/03/08 05:59:32;;;;;;;13.93;9.07;;;;;;;-1.02;100.00;99731.56;5110399;28;20228;-79
2022/03/08 06:02:01;;;;;;;14.13;9.57;;;;;;;-0.94;100.00;99733.22;5101502;28;20272;-79
2022/03/08 06:04:30;;;;;;;13.03;9.90;;;;;;;-0.81;100.00;99736.56;5107540;28;20191;-79
2022/03/08 06:06:59;;;;;;;11.47;8.50;;;;;;;-0.90;100.00;99734.03;5070036;28;20184;-79
2022/03/08 06:09:28;;;;;;;15.07;9.73;;;;;;;-0.96;100.00;99729.78;5067445;28;20200;-78
2022/03/08 06:11:57;;;;;;;21.83;12.80;;;;;;;-0.97;100.00;99728.03;5070489;28;20203;-79
2022/03/08 06:14:25;;;;;;;24.70;16.63;;;;;;;-0.81;100.00;99733.09;5069688;28;20192;-79
2022/03/08 06:16:54;;;;;;;32.43;20.23;;;;;;;-0.89;100.00;99728.81;5052941;28;20200;-80
2022/03/08 06:19:24;;;;;;;27.17;17.43;;;;;;;-0.91;100.00;99727.13;5093366;28;20207;-79
2022/03/08 06:21:53;;;;;;;23.40;16.03;;;;;;;-0.74;100.00;99724.38;5102993;28;20649;-79
2022/03/08 06:24:21;;;;;;;26.13;16.43;;;;;;;-0.77;100.00;99729.59;5110448;27;20193;-79
2022/03/08 06:26:51;;;;;;;23.07;15.23;;;;;;;-0.73;100.00;99731.31;5148110;27;20185;-79
2022/03/08 06:29:23;;;;;;;23.73;14.60;;;;;;;-0.69;100.00;99726.03;5151430;27;20216;-79
2022/03/08 06:31:53;;;;;;;30.80;18.17;;;;;;;-0.65;100.00;99730.38;5145432;27;20216;-79
2022/03/08 06:34:21;;;;;;;30.37;18.87;;;;;;;-0.64;100.00;99729.47;5151526;27;20240;-79
2022/03/08 06:36:51;;;;;;;29.17;15.03;;;;;;;-0.64;100.00;99734.69;5153681;27;20192;-79
2022/03/08 06:39:20;;;;;;;23.23;13.60;;;;;;;-0.64;100.00;99729.47;5102940;27;20221;-79
2022/03/08 06:41:50;;;;;;;19.77;10.77;;;;;;;-0.49;100.00;99730.19;5153008;27;20636;-79
2022/03/08 06:44:18;;;;;;;16.63;10.20;;;;;;;-0.36;100.00;99737.00;5148006;27;20285;-79
2022/03/08 06:46:47;;;;;;;18.90;10.30;;;;;;;-0.27;100.00;99734.31;5151685;27;20231;-79
2022/03/08 06:49:16;;;;;;;14.20;9.20;;;;;;;-0.11;100.00;99735.84;5151140;27;20219;-79
2022/03/08 06:51:45;;;;;;;12.60;8.73;;;;;;;0.03;100.00;99732.22;5152089;27;20189;-79
2022/03/08 06:54:19;;;;;;;12.50;8.73;;;;;;;0.20;100.00;99741.56;5155708;27;20189;-79
2022/03/08 06:56:47;;;;;;;13.97;9.30;;;;;;;0.09;100.00;99746.03;5155217;27;20209;-79
2022/03/08 06:59:17;;;;;;;12.73;9.33;;;;;;;0.28;100.00;99746.66;5149750;27;20667;-79
2022/03/08 07:01:45;;;;;;;16.67;11.17;;;;;;;0.28;100.00;99754.47;5149252;27;20277;-79
2022/03/08 07:04:14;;;;;;;13.77;9.90;;;;;;;0.06;100.00;99748.66;5153279;27;20209;-79
2022/03/08 07:06:48;;;;;;;18.20;12.87;;;;;;;0.17;100.00;99746.78;5154331;27;20241;-79
2022/03/08 07:09:16;;;;;;;14.63;11.90;;;;;;;0.44;100.00;99752.53;5152826;27;20201;-79
2022/03/08 07:11:44;;;;;;;13.50;9.40;;;;;;;0.50;100.00;99755.06;5143537;27;20206;-79
2022/03/08 07:14:17;;;;;;;15.70;9.40;;;;;;;0.70;100.00;99741.75;5150673;27;20190;-79
2022/03/08 07:16:47;;;;;;;14.33;9.03;;;;;;;0.70;100.00;99749.56;5151868;27;20243;-79
2022/03/08 07:19:15;;;;;;;12.43;9.20;;;;;;;0.87;100.00;99755.41;5151469;27;20205;-79
2022/03/08 07:21:45;;;;;;;14.53;9.73;;;;;;;0.98;100.00;99748.28;5146884;27;20208;-78
2022/03/08 07:24:15;;;;;;;14.73;9.97;;;;;;;1.21;100.00;99742.66;5157892;27;20192;-79
2022/03/08 07:26:44;;;;;;;14.07;10.53;;;;;;;1.25;100.00;99743.47;5103361;27;20201;-79
2022/03/08 07:29:12;;;;;;;14.00;9.37;;;;;;;1.51;100.00;99746.50;5150090;27;20197;-79
2022/03/08 07:31:42;;;;;;;13.10;9.00;;;;;;;1.64;100.00;99741.91;5152421;27;20313;-79
2022/03/08 07:34:11;;;;;;;16.87;9.40;;;;;;;1.64;100.00;99744.50;5147127;27;20290;-79
2022/03/08 07:36:40;;;;;;;13.90;9.07;;;;;;;1.73;100.00;99739.97;5150386;27;20185;-79
2022/03/08 07:39:09;;;;;;;10.53;8.47;;;;;;;1.68;100.00;99741.84;5149212;27;20227;-79
2022/03/08 07:41:38;;;;;;;12.83;8.97;;;;;;;1.76;100.00;99746.06;5101646;27;20234;-79
2022/03/08 07:44:06;;;;;;;15.17;9.70;;;;;;;1.76;100.00;99749.53;5151793;27;20213;-79
2022/03/08 07:46:36;;;;;;;15.03;9.13;;;;;;;1.94;100.00;99758.78;5144661;27;20350;-79
2022/03/08 07:49:06;;;;;;;11.97;8.83;;;;;;;2.10;100.00;99751.47;5150418;27;20193;-79
2022/03/08 07:51:50;;;;;;;13.80;9.20;;;;;;;2.28;100.00;99751.97;5156931;27;20196;-79
2022/03/08 07:54:21;;;;;;;14.77;9.47;;;;;;;2.29;100.00;99750.19;5150239;27;20227;-79
2022/03/08 07:56:51;;;;;;;11.90;9.37;;;;;;;2.45;100.00;99753.38;5145736;27;20245;-78
2022/03/08 07:59:20;;;;;;;13.13;9.73;;;;;;;2.57;100.00;99745.25;5146744;27;20214;-79
2022/03/08 08:01:49;;;;;;;13.73;9.43;;;;;;;2.61;100.00;99757.38;5146047;27;20201;-79
2022/03/08 08:04:21;;;;;;;13.13;9.73;;;;;;;2.63;100.00;99754.72;5152278;27;20204;-79
2022/03/08 08:06:49;;;;;;;13.07;9.13;;;;;;;2.83;100.00;99753.38;5152764;27;20182;-79
2022/03/08 08:09:18;;;;;;;12.73;9.50;;;;;;;3.03;100.00;99746.81;5149618;27;20304;-79
2022/03/08 08:11:51;;;;;;;12.30;9.13;;;;;;;3.16;100.00;99741.22;5152761;27;20198;-79
2022/03/08 08:14:21;;;;;;;13.77;9.20;;;;;;;3.19;100.00;99745.56;5152105;27;20188;-79
2022/03/08 08:16:49;;;;;;;13.07;9.30;;;;;;;3.42;100.00;99737.97;5144417;27;20197;-79
2022/03/08 08:19:20;;;;;;;11.77;8.67;;;;;;;3.60;100.00;99741.88;5148887;27;20305;-80
2022/03/08 08:21:49;;;;;;;12.70;9.63;;;;;;;3.60;100.00;99743.63;5146705;27;20204;-79
2022/03/08 08:24:18;;;;;;;14.17;9.10;;;;;;;3.53;100.00;99742.94;5069924;28;20665;-79
2022/03/08 08:26:47;;;;;;;12.90;9.43;;;;;;;3.69;100.00;99741.63;5068016;28;20324;-79
2022/03/08 08:29:15;;;;;;;10.37;8.43;;;;;;;3.95;100.00;99740.03;5059115;28;20205;-79
2022/03/08 08:31:44;;;;;;;13.87;8.93;;;;;;;4.15;100.00;99739.47;5068823;28;20188;-80
2022/03/08 08:34:13;;;;;;;11.70;8.90;;;;;;;4.03;100.00;99741.56;5066575;28;20197;-80
2022/03/08 08:36:44;;;;;;;14.50;9.80;;;;;;;4.35;100.00;99742.41;5065207;28;20196;-79
2022/03/08 08:39:14;;;;;;;11.23;8.90;;;;;;;4.59;100.00;99738.19;5072820;28;20223;-79
2022/03/08 08:41:43;;;;;;;12.50;8.80;;;;;;;4.79;100.00;99734.94;5086196;27;20200;-79
2022/03/08 08:44:12;;;;;;;11.73;8.77;;;;;;;4.85;100.00;99730.38;5174667;27;20220;-80
2022/03/08 08:46:41;;;;;;;13.00;9.03;;;;;;;4.97;100.00;99728.28;5170645;27;20246;-80
2022/03/08 08:49:09;;;;;;;11.67;9.03;;;;;;;5.01;100.00;99725.47;5172559;27;20242;-79
2022/03/08 08:51:38;;;;;;;11.13;8.63;;;;;;;5.26;100.00;99724.69;5163679;27;20185;-79
2022/03/08 08:54:07;;;;;;;13.00;8.60;;;;;;;5.26;100.00;99720.28;5172015;27;20656;-78
2022/03/08 08:56:38;;;;;;;10.37;6.53;;;;;;;5.56;100.00;99718.41;5172281;27;20197;-79
2022/03/08 08:59:08;;;;;;;10.23;7.23;;;;;;;5.62;100.00;99718.19;5124433;27;20227;-80
2022/03/08 09:01:37;;;;;;;10.03;6.57;;;;;;;5.59;100.00;99717.41;5173089;27;20193;-80
2022/03/08 09:04:06;;;;;;;11.50;7.33;;;;;;;5.82;100.00;99716.63;5121902;27;20304;-79
2022/03/08 09:06:35;;;;;;;11.73;6.43;;;;;;;5.86;100.00;99712.97;5121265;27;20241;-79
2022/03/08 09:09:04;;;;;;;8.43;6.20;;;;;;;5.95;100.00;99713.53;5172424;27;20200;-80
2022/03/08 09:11:38;;;;;;;8.27;5.90;;;;;;;6.26;100.00;99722.91;5112212;28;20339;-79
2022/03/08 09:14:07;;;;;;;7.80;5.67;;;;;;;6.13;97.60;99712.00;5101593;28;20191;-79
2022/03/08 09:16:35;;;;;;;7.87;5.20;;;;;;;6.15;96.20;99712.78;5103338;28;20202;-79
2022/03/08 09:19:04;;;;;;;7.20;5.13;;;;;;;6.34;95.14;99717.38;5106033;28;20183;-76
2022/03/08 09:21:33;;;;;;;7.20;5.07;;;;;;;6.46;93.07;99711.63;5107364;28;20191;-77
2022/03/08 09:24:02;;;;;;;7.87;5.00;;;;;;;6.67;90.49;99699.44;5102431;28;20191;-77
2022/03/08 09:26:31;;;;;;;8.07;4.77;;;;;;;6.61;90.19;99718.97;5104662;28;20195;-79
2022/03/08 09:29:05;;;;;;;7.00;4.50;;;;;;;6.81;87.49;99715.53;5117702;27;20182;-79
2022/03/08 09:31:33;;;;;;;8.13;4.40;;;;;;;6.59;86.06;99702.38;5167790;27;20185;-79
2022/03/08 09:34:03;;;;;;;8.17;4.40;;;;;;;6.79;85.45;99705.06;5169524;27;20719;-80
2022/03/08 09:36:32;;;;;;;6.20;4.47;;;;;;;6.91;83.16;99700.22;5169716;27;20185;-79
2022/03/08 09:39:05;;;;;;;5.87;4.30;;;;;;;7.03;82.66;99697.94;5112743;27;20189;-79
2022/03/08 09:41:37;;;;;;;6.97;4.40;;;;;;;6.95;80.82;99704.44;5171696;27;20268;-80
2022/03/08 09:44:13;;;;;;;6.70;4.27;;;;;;;7.04;81.24;99709.34;5119146;27;20227;-79
2022/03/08 09:46:43;;;;;;;8.13;4.63;;;;;;;7.29;79.87;99699.50;5167899;27;20196;-79
2022/03/08 09:49:12;;;;;;;5.83;4.40;;;;;;;7.32;78.83;99691.47;5171181;27;20195;-79
2022/03/08 09:51:43;;;;;;;10.17;4.77;;;;;;;7.52;76.94;99695.91;5106800;28;20202;-79
2022/03/08 09:54:14;;;;;;;7.20;4.67;;;;;;;7.70;75.65;99688.97;5011972;28;20191;-80
2022/03/08 09:56:43;;;;;;;7.03;4.33;;;;;;;7.86;73.36;99697.94;5007436;28;20206;-79
2022/03/08 09:59:16;;;;;;;7.87;4.10;;;;;;;7.86;71.39;99690.03;5005765;28;20206;-79
2022/03/08 10:01:48;;;;;;;5.90;3.87;;;;;;;8.06;71.27;99689.13;5010285;28;20198;-79
2022/03/08 10:04:17;;;;;;;7.57;4.53;;;;;;;8.37;69.97;99687.75;4963042;28;20210;-79
2022/03/08 10:07:08;;;;;;;6.87;4.97;;;;;;;8.34;66.86;99686.09;5011601;28;20195;-80
2022/03/08 10:09:38;;;;;;;9.23;4.90;;;;;;;8.27;65.39;99687.28;5027983;28;20211;-80
2022/03/08 10:12:16;;;;;;;7.73;4.50;;;;;;;8.23;64.97;99683.94;5017759;28;20193;-80
2022/03/08 10:14:46;;;;;;;6.47;4.30;;;;;;;8.35;64.59;99672.00;5038200;28;20283;-80
2022/03/08 10:17:33;;;;;;;5.83;4.17;;;;;;;8.53;61.66;99675.56;5066229;28;20745;-79
2022/03/08 10:20:02;;;;;;;10.00;4.63;;;;;;;8.51;62.21;99670.34;4972701;28;20235;-79
2022/03/08 10:22:41;;;;;;;6.43;4.23;;;;;;;8.64;61.57;99664.47;4975918;28;20206;-80
2022/03/08 10:25:17;;;;;;;7.03;4.80;;;;;;;8.97;60.17;99657.53;4971214;28;20203;-80
2022/03/08 10:27:59;;;;;;;7.13;4.20;;;;;;;8.84;58.40;99659.09;4932641;29;20266;-80
2022/03/08 10:30:47;;;;;;;6.60;4.97;;;;;;;8.65;58.92;99655.63;4932050;29;20212;-80
2022/03/08 10:33:36;;;;;;;7.77;4.97;;;;;;;8.64;59.12;99659.19;5010954;28;20198;-80
2022/03/08 10:36:15;;;;;;;6.77;4.60;;;;;;;8.77;58.19;99661.16;5007691;28;20281;-81
2022/03/08 10:39:19;;;;;;;6.17;4.50;;;;;;;8.65;59.08;99645.91;5065081;28;20702;-80
2022/03/08 10:41:50;;;;;;;6.80;4.57;;;;;;;8.68;58.85;99653.69;5088288;28;20211;-80
2022/03/08 10:44:33;;;;;;;8.07;5.13;;;;;;;9.21;59.13;99644.91;5085414;28;20227;-81
2022/03/08 10:47:06;;;;;;;7.83;4.80;;;;;;;9.30;58.22;99646.22;5161777;27;20245;-81
2022/03/08 10:49:49;;;;;;;8.17;5.70;;;;;;;9.59;57.79;99639.44;5139104;27;20185;-80
2022/03/08 10:52:18;;;;;;;8.87;5.47;;;;;;;9.86;55.83;99638.00;5164152;27;20193;-80
2022/03/08 10:54:48;;;;;;;7.53;5.53;;;;;;;9.59;55.38;99636.81;5173058;27;20272;-80
2022/03/08 10:57:18;;;;;;;8.67;5.33;;;;;;;9.84;55.16;99637.19;5166261;27;20208;-80
2022/03/08 11:00:11;;;;;;;8.13;5.83;;;;;;;9.64;55.52;99634.75;5176561;27;20234;-81
2022/03/08 11:02:53;;;;;;;6.53;5.17;;;;;;;8.99;56.90;99637.22;5171854;27;20211;-80
2022/03/08 11:05:23;;;;;;;9.67;6.10;;;;;;;9.74;57.45;99625.41;5173553;27;20208;-80
2022/03/08 11:07:52;;;;;;;7.93;5.80;;;;;;;10.10;55.04;99622.56;5172105;27;20205;-80
2022/03/08 11:10:21;;;;;;;7.60;5.70;;;;;;;9.91;55.04;99617.41;5169114;27;20237;-80
2022/03/08 11:12:54;;;;;;;6.23;5.07;;;;;;;10.30;54.04;99625.00;5079631;28;20216;-80
2022/03/08 11:15:24;;;;;;;6.93;5.70;;;;;;;10.34;54.51;99617.75;5071789;28;20196;-80
2022/03/08 11:17:56;;;;;;;6.83;5.33;;;;;;;10.29;52.52;99615.34;5088512;28;20250;-80
2022/03/08 11:20:26;;;;;;;7.10;5.20;;;;;;;10.40;52.56;99616.56;5069441;28;20222;-80
2022/03/08 11:22:57;;;;;;;7.57;5.97;;;;;;;10.29;52.39;99603.91;5065757;28;20201;-81
2022/03/08 11:25:29;;;;;;;7.83;5.83;;;;;;;10.21;52.75;99606.94;5069434;28;20197;-80
2022/03/08 11:28:21;;;;;;;8.57;5.50;;;;;;;10.03;52.71;99610.59;5047587;28;20188;-80
2022/03/08 11:30:54;;;;;;;9.50;6.03;;;;;;;9.88;54.81;99601.72;5018141;28;20203;-81
2022/03/08 11:33:39;;;;;;;10.37;6.17;;;;;;;10.38;53.70;99598.09;4994475;28;20210;-80
2022/03/08 11:36:16;;;;;;;7.37;5.70;;;;;;;10.88;51.81;99600.50;4994580;28;20229;-81
2022/03/08 11:39:05;;;;;;;7.93;5.60;;;;;;;10.83;51.64;99602.59;4954518;29;20188;-81
2022/03/08 11:41:34;;;;;;;9.17;6.17;;;;;;;10.86;50.53;99599.75;4952702;29;20232;-81
2022/03/08 11:44:04;;;;;;;7.40;5.70;;;;;;;11.25;49.56;99606.31;4955433;28;20212;-81
2022/03/08 11:46:37;;;;;;;8.37;6.47;;;;;;;10.85;48.99;99595.38;4952758;29;20290;-80